sensor_id;sensor_type;location;lat;lon;timestamp;temperature;humidity
17483;DHT22;8858;52.308;20.994;2024-03-22T00:00:09;10.00;99.90
17483;DHT22;8858;52.308;20.994;2024-03-22T00:02:40;9.80;99.90
17483;DHT22;8858;52.308;20.994;2024-03-22T00:05:06;9.70;99.90
17483;DHT22;8858;52.308;20.994;2024-03-22T00:07:37;9.70;99.90
17483;DHT22;8858;52.308;20.994;2024-03-22T00:10:05;9.80;99.90
17483;DHT22;8858;52.308;20.994;2024-03-22T00:12:32;9.90;99.90
17483;DHT22;8858;52.308;20.994;2024-03-22T00:14:59;9.90;99.90
17483;DHT22;8858;52.308;20.994;2024-03-22T00:17:27;9.80;99.90
17483;DHT22;8858;52.308;20.994;2024-03-22T00:19:55;9.80;99.90
17483;DHT22;8858;52.308;20.994;2024-03-22T00:22:23;9.90;99.90
17483;DHT22;8858;52.308;20.994;2024-03-22T00:24:49;9.90;99.90
17483;DHT22;8858;52.308;20.994;2024-03-22T00:29:43;9.90;99.90
17483;DHT22;8858;52.308;20.994;2024-03-22T00:32:13;10.00;99.90
17483;DHT22;8858;52.308;20.994;2024-03-22T00:34:41;9.90;99.90
17483;DHT22;8858;52.308;20.994;2024-03-22T00:43:14;9.80;99.90
17483;DHT22;8858;52.308;20.994;2024-03-22T00:48:30;9.70;99.90
17483;DHT22;8858;52.308;20.994;2024-03-22T00:50:59;9.80;99.90
17483;DHT22;8858;52.308;20.994;2024-03-22T00:53:25;9.80;99.90
17483;DHT22;8858;52.308;20.994;2024-03-22T00:58:40;9.90;99.90
17483;DHT22;8858;52.308;20.994;2024-03-22T01:04:03;10.00;99.90
17483;DHT22;8858;52.308;20.994;2024-03-22T01:09:13;10.10;99.90
17483;DHT22;8858;52.308;20.994;2024-03-22T01:11:41;10.00;99.90
17483;DHT22;8858;52.308;20.994;2024-03-22T01:14:07;10.00;99.90
17483;DHT22;8858;52.308;20.994;2024-03-22T01:16:36;9.90;99.90
17483;DHT22;8858;52.308;20.994;2024-03-22T01:19:03;9.80;99.90
17483;DHT22;8858;52.308;20.994;2024-03-22T01:24:27;9.70;99.90
17483;DHT22;8858;52.308;20.994;2024-03-22T01:26:55;9.60;99.90
17483;DHT22;8858;52.308;20.994;2024-03-22T01:29:21;9.60;99.90
17483;DHT22;8858;52.308;20.994;2024-03-22T01:35:10;9.60;99.90
17483;DHT22;8858;52.308;20.994;2024-03-22T01:37:37;9.50;99.90
17483;DHT22;8858;52.308;20.994;2024-03-22T01:43:10;9.50;99.90
17483;DHT22;8858;52.308;20.994;2024-03-22T01:48:36;9.50;99.90
17483;DHT22;8858;52.308;20.994;2024-03-22T01:53:38;9.40;99.90
17483;DHT22;8858;52.308;20.994;2024-03-22T01:56:07;9.40;99.90
17483;DHT22;8858;52.308;20.994;2024-03-22T01:58:34;9.50;99.90
17483;DHT22;8858;52.308;20.994;2024-03-22T02:04:05;9.40;99.90
17483;DHT22;8858;52.308;20.994;2024-03-22T02:09:06;9.30;99.90
17483;DHT22;8858;52.308;20.994;2024-03-22T02:14:41;9.40;99.90
17483;DHT22;8858;52.308;20.994;2024-03-22T02:17:09;9.40;99.90
17483;DHT22;8858;52.308;20.994;2024-03-22T02:19:37;9.40;99.90
17483;DHT22;8858;52.308;20.994;2024-03-22T02:28:07;9.50;99.90
17483;DHT22;8858;52.308;20.994;2024-03-22T02:33:33;9.50;99.90
17483;DHT22;8858;52.308;20.994;2024-03-22T02:36:01;9.50;99.90
17483;DHT22;8858;52.308;20.994;2024-03-22T02:38:27;9.60;99.90
17483;DHT22;8858;52.308;20.994;2024-03-22T02:43:47;9.60;99.90
17483;DHT22;8858;52.308;20.994;2024-03-22T02:46:15;9.70;99.90
17483;DHT22;8858;52.308;20.994;2024-03-22T02:48:41;9.70;99.90
17483;DHT22;8858;52.308;20.994;2024-03-22T02:54:05;9.80;99.90
17483;DHT22;8858;52.308;20.994;2024-03-22T02:59:39;9.80;99.90
17483;DHT22;8858;52.308;20.994;2024-03-22T03:02:06;9.80;99.90
17483;DHT22;8858;52.308;20.994;2024-03-22T03:04:32;9.80;99.90
17483;DHT22;8858;52.308;20.994;2024-03-22T03:06:59;9.80;99.90
17483;DHT22;8858;52.308;20.994;2024-03-22T03:09:26;9.80;99.90
17483;DHT22;8858;52.308;20.994;2024-03-22T03:14:44;9.70;99.90
17483;DHT22;8858;52.308;20.994;2024-03-22T03:17:37;9.80;99.90
17483;DHT22;8858;52.308;20.994;2024-03-22T03:22:52;9.80;99.90
17483;DHT22;8858;52.308;20.994;2024-03-22T03:28:16;9.80;99.90
17483;DHT22;8858;52.308;20.994;2024-03-22T03:33:41;9.70;99.90
17483;DHT22;8858;52.308;20.994;2024-03-22T03:36:08;9.80;99.90
17483;DHT22;8858;52.308;20.994;2024-03-22T03:38:34;9.80;99.90
17483;DHT22;8858;52.308;20.994;2024-03-22T03:41:03;9.70;99.90
17483;DHT22;8858;52.308;20.994;2024-03-22T03:43:30;9.60;99.90
17483;DHT22;8858;52.308;20.994;2024-03-22T03:48:46;9.50;99.90
17483;DHT22;8858;52.308;20.994;2024-03-22T03:51:13;9.40;99.90
17483;DHT22;8858;52.308;20.994;2024-03-22T03:53:40;9.30;99.90
17483;DHT22;8858;52.308;20.994;2024-03-22T03:56:07;9.20;99.90
17483;DHT22;8858;52.308;20.994;2024-03-22T03:58:33;9.10;99.90
17483;DHT22;8858;52.308;20.994;2024-03-22T04:03:53;9.10;99.90
17483;DHT22;8858;52.308;20.994;2024-03-22T04:06:20;9.10;99.90
17483;DHT22;8858;52.308;20.994;2024-03-22T04:08:47;9.10;99.90
17483;DHT22;8858;52.308;20.994;2024-03-22T04:11:39;9.10;99.90
17483;DHT22;8858;52.308;20.994;2024-03-22T04:14:05;9.00;99.90
17483;DHT22;8858;52.308;20.994;2024-03-22T04:16:33;9.00;99.90
17483;DHT22;8858;52.308;20.994;2024-03-22T04:19:01;9.00;99.90
17483;DHT22;8858;52.308;20.994;2024-03-22T04:21:28;9.00;99.90
17483;DHT22;8858;52.308;20.994;2024-03-22T04:23:55;9.00;99.90
17483;DHT22;8858;52.308;20.994;2024-03-22T04:26:22;8.90;99.90
17483;DHT22;8858;52.308;20.994;2024-03-22T04:28:49;8.90;99.90
17483;DHT22;8858;52.308;20.994;2024-03-22T04:31:16;8.90;99.90
17483;DHT22;8858;52.308;20.994;2024-03-22T04:33:43;8.90;99.90
17483;DHT22;8858;52.308;20.994;2024-03-22T04:36:15;8.90;99.90
17483;DHT22;8858;52.308;20.994;2024-03-22T04:38:41;8.90;99.90
17483;DHT22;8858;52.308;20.994;2024-03-22T04:41:09;8.90;99.90
17483;DHT22;8858;52.308;20.994;2024-03-22T04:43:36;8.90;99.90
17483;DHT22;8858;52.308;20.994;2024-03-22T04:46:08;8.80;99.90
17483;DHT22;8858;52.308;20.994;2024-03-22T04:48:35;8.90;99.90
17483;DHT22;8858;52.308;20.994;2024-03-22T04:54:05;8.80;99.90
17483;DHT22;8858;52.308;20.994;2024-03-22T04:56:33;8.80;99.90
17483;DHT22;8858;52.308;20.994;2024-03-22T04:59:00;8.80;99.90
17483;DHT22;8858;52.308;20.994;2024-03-22T05:01:27;8.80;99.90
17483;DHT22;8858;52.308;20.994;2024-03-22T05:03:54;8.80;99.90
17483;DHT22;8858;52.308;20.994;2024-03-22T05:06:21;8.70;99.90
17483;DHT22;8858;52.308;20.994;2024-03-22T05:08:48;8.70;99.90
17483;DHT22;8858;52.308;20.994;2024-03-22T05:14:08;8.70;99.90
17483;DHT22;8858;52.308;20.994;2024-03-22T05:19:42;8.70;99.90
17483;DHT22;8858;52.308;20.994;2024-03-22T05:22:36;8.60;99.90
17483;DHT22;8858;52.308;20.994;2024-03-22T05:25:19;8.50;99.90
17483;DHT22;8858;52.308;20.994;2024-03-22T05:32:40;8.70;99.90
17483;DHT22;8858;52.308;20.994;2024-03-22T05:35:32;8.70;99.90
17483;DHT22;8858;52.308;20.994;2024-03-22T05:48:00;8.80;99.90
17483;DHT22;8858;52.308;20.994;2024-03-22T05:50:30;8.80;99.90
17483;DHT22;8858;52.308;20.994;2024-03-22T05:53:56;8.80;99.90
17483;DHT22;8858;52.308;20.994;2024-03-22T05:57:51;8.80;99.90
17483;DHT22;8858;52.308;20.994;2024-03-22T06:00:29;8.70;99.90
17483;DHT22;8858;52.308;20.994;2024-03-22T06:02:56;8.70;99.90
17483;DHT22;8858;52.308;20.994;2024-03-22T06:05:24;8.80;99.90
17483;DHT22;8858;52.308;20.994;2024-03-22T06:07:54;8.80;99.90
17483;DHT22;8858;52.308;20.994;2024-03-22T06:23:51;8.80;99.90
17483;DHT22;8858;52.308;20.994;2024-03-22T06:32:18;8.80;99.90
17483;DHT22;8858;52.308;20.994;2024-03-22T06:37:48;8.70;99.90
17483;DHT22;8858;52.308;20.994;2024-03-22T06:40:17;8.80;99.90
17483;DHT22;8858;52.308;20.994;2024-03-22T06:42:43;8.80;99.90
17483;DHT22;8858;52.308;20.994;2024-03-22T06:48:00;8.80;99.90
17483;DHT22;8858;52.308;20.994;2024-03-22T06:50:28;8.80;99.90
17483;DHT22;8858;52.308;20.994;2024-03-22T06:52:54;8.80;99.90
17483;DHT22;8858;52.308;20.994;2024-03-22T07:07:09;9.00;99.90
17483;DHT22;8858;52.308;20.994;2024-03-22T07:12:31;9.10;99.90
17483;DHT22;8858;52.308;20.994;2024-03-22T07:15:02;9.10;99.90
17483;DHT22;8858;52.308;20.994;2024-03-22T07:17:30;8.90;99.90
17483;DHT22;8858;52.308;20.994;2024-03-22T07:23:03;8.70;99.90
17483;DHT22;8858;52.308;20.994;2024-03-22T07:28:26;8.70;99.90
17483;DHT22;8858;52.308;20.994;2024-03-22T07:30:53;8.80;99.90
17483;DHT22;8858;52.308;20.994;2024-03-22T07:33:22;8.80;99.90
17483;DHT22;8858;52.308;20.994;2024-03-22T07:35:49;8.70;99.90
17483;DHT22;8858;52.308;20.994;2024-03-22T07:38:17;8.70;99.90
17483;DHT22;8858;52.308;20.994;2024-03-22T07:40:44;8.70;99.90
17483;DHT22;8858;52.308;20.994;2024-03-22T07:43:13;8.70;99.90
17483;DHT22;8858;52.308;20.994;2024-03-22T07:48:38;8.80;99.90
17483;DHT22;8858;52.308;20.994;2024-03-22T07:51:05;8.90;99.90
17483;DHT22;8858;52.308;20.994;2024-03-22T07:53:33;9.00;99.90
17483;DHT22;8858;52.308;20.994;2024-03-22T07:56:00;9.20;99.90
17483;DHT22;8858;52.308;20.994;2024-03-22T07:58:26;9.10;99.90
17483;DHT22;8858;52.308;20.994;2024-03-22T08:00:54;9.00;99.90
17483;DHT22;8858;52.308;20.994;2024-03-22T08:03:20;9.00;99.90
17483;DHT22;8858;52.308;20.994;2024-03-22T08:14:40;8.80;99.90
17483;DHT22;8858;52.308;20.994;2024-03-22T08:17:08;8.80;99.90
17483;DHT22;8858;52.308;20.994;2024-03-22T08:22:31;8.70;99.90
17483;DHT22;8858;52.308;20.994;2024-03-22T08:25:02;8.60;99.90
17483;DHT22;8858;52.308;20.994;2024-03-22T08:27:30;8.50;99.90
17483;DHT22;8858;52.308;20.994;2024-03-22T08:29:58;8.50;99.90
17483;DHT22;8858;52.308;20.994;2024-03-22T08:32:25;8.50;99.90
17483;DHT22;8858;52.308;20.994;2024-03-22T08:37:41;8.60;99.90
17483;DHT22;8858;52.308;20.994;2024-03-22T08:42:50;8.70;99.90
17483;DHT22;8858;52.308;20.994;2024-03-22T08:45:19;8.70;99.90
17483;DHT22;8858;52.308;20.994;2024-03-22T08:47:46;8.70;99.90
17483;DHT22;8858;52.308;20.994;2024-03-22T08:50:13;8.70;99.90
17483;DHT22;8858;52.308;20.994;2024-03-22T08:52:40;8.70;99.90
17483;DHT22;8858;52.308;20.994;2024-03-22T08:55:08;8.70;99.90
17483;DHT22;8858;52.308;20.994;2024-03-22T08:57:34;8.70;99.90
17483;DHT22;8858;52.308;20.994;2024-03-22T09:02:51;8.80;99.90
17483;DHT22;8858;52.308;20.994;2024-03-22T09:05:22;8.80;99.90
17483;DHT22;8858;52.308;20.994;2024-03-22T09:07:48;8.80;99.90
17483;DHT22;8858;52.308;20.994;2024-03-22T09:16:01;8.90;99.90
17483;DHT22;8858;52.308;20.994;2024-03-22T09:18:30;9.00;99.90
17483;DHT22;8858;52.308;20.994;2024-03-22T09:20:57;9.10;99.90
17483;DHT22;8858;52.308;20.994;2024-03-22T09:26:27;9.00;99.90
17483;DHT22;8858;52.308;20.994;2024-03-22T09:28:54;9.10;99.90
17483;DHT22;8858;52.308;20.994;2024-03-22T09:31:21;9.10;99.90
17483;DHT22;8858;52.308;20.994;2024-03-22T09:36:51;9.20;99.90
17483;DHT22;8858;52.308;20.994;2024-03-22T09:42:30;9.40;99.90
17483;DHT22;8858;52.308;20.994;2024-03-22T09:44:59;9.50;99.90
17483;DHT22;8858;52.308;20.994;2024-03-22T09:47:27;9.50;99.90
17483;DHT22;8858;52.308;20.994;2024-03-22T09:52:52;9.50;99.90
17483;DHT22;8858;52.308;20.994;2024-03-22T09:55:22;9.40;99.90
17483;DHT22;8858;52.308;20.994;2024-03-22T09:57:50;9.50;99.90
17483;DHT22;8858;52.308;20.994;2024-03-22T10:00:29;9.50;99.90
17483;DHT22;8858;52.308;20.994;2024-03-22T10:03:00;9.60;99.90
17483;DHT22;8858;52.308;20.994;2024-03-22T10:05:30;9.70;99.90
17483;DHT22;8858;52.308;20.994;2024-03-22T10:07:58;9.80;99.90
17483;DHT22;8858;52.308;20.994;2024-03-22T10:10:25;9.80;99.90
17483;DHT22;8858;52.308;20.994;2024-03-22T10:12:51;9.80;99.90
17483;DHT22;8858;52.308;20.994;2024-03-22T10:15:19;9.70;99.90
17483;DHT22;8858;52.308;20.994;2024-03-22T10:17:45;9.80;99.90
17483;DHT22;8858;52.308;20.994;2024-03-22T10:20:13;9.80;99.90
17483;DHT22;8858;52.308;20.994;2024-03-22T10:22:42;9.90;99.90
17483;DHT22;8858;52.308;20.994;2024-03-22T10:25:10;9.90;99.90
17483;DHT22;8858;52.308;20.994;2024-03-22T10:27:38;10.00;99.90
17483;DHT22;8858;52.308;20.994;2024-03-22T10:30:07;10.00;99.90
17483;DHT22;8858;52.308;20.994;2024-03-22T10:32:38;10.00;99.90
17483;DHT22;8858;52.308;20.994;2024-03-22T10:41:07;10.00;99.90
17483;DHT22;8858;52.308;20.994;2024-03-22T10:46:33;10.00;99.90
17483;DHT22;8858;52.308;20.994;2024-03-22T10:49:02;9.90;99.90
17483;DHT22;8858;52.308;20.994;2024-03-22T10:51:30;9.90;99.90
17483;DHT22;8858;52.308;20.994;2024-03-22T10:56:58;10.00;99.90
17483;DHT22;8858;52.308;20.994;2024-03-22T10:59:26;10.00;99.90
17483;DHT22;8858;52.308;20.994;2024-03-22T11:01:52;9.90;99.90
17483;DHT22;8858;52.308;20.994;2024-03-22T11:07:20;10.00;99.90
17483;DHT22;8858;52.308;20.994;2024-03-22T11:09:52;10.10;99.90
17483;DHT22;8858;52.308;20.994;2024-03-22T11:12:19;10.10;99.90
17483;DHT22;8858;52.308;20.994;2024-03-22T11:14:51;10.10;99.90
17483;DHT22;8858;52.308;20.994;2024-03-22T11:17:18;10.00;99.90
17483;DHT22;8858;52.308;20.994;2024-03-22T11:19:45;10.00;99.90
17483;DHT22;8858;52.308;20.994;2024-03-22T11:22:11;10.00;99.90
17483;DHT22;8858;52.308;20.994;2024-03-22T11:24:44;10.00;99.90
17483;DHT22;8858;52.308;20.994;2024-03-22T11:27:11;10.00;99.90
17483;DHT22;8858;52.308;20.994;2024-03-22T11:29:40;9.90;99.90
17483;DHT22;8858;52.308;20.994;2024-03-22T11:32:08;9.80;99.90
17483;DHT22;8858;52.308;20.994;2024-03-22T11:34:35;9.80;99.90
17483;DHT22;8858;52.308;20.994;2024-03-22T11:37:02;9.80;99.90
17483;DHT22;8858;52.308;20.994;2024-03-22T11:39:30;9.80;99.90
17483;DHT22;8858;52.308;20.994;2024-03-22T11:41:56;9.90;99.90
17483;DHT22;8858;52.308;20.994;2024-03-22T11:44:24;9.80;99.90
17483;DHT22;8858;52.308;20.994;2024-03-22T11:46:53;9.90;99.90
17483;DHT22;8858;52.308;20.994;2024-03-22T11:49:20;9.90;99.90
17483;DHT22;8858;52.308;20.994;2024-03-22T11:51:51;9.90;99.90
17483;DHT22;8858;52.308;20.994;2024-03-22T11:54:19;9.90;99.90
17483;DHT22;8858;52.308;20.994;2024-03-22T11:56:46;9.90;99.90
17483;DHT22;8858;52.308;20.994;2024-03-22T11:59:13;9.90;99.90
17483;DHT22;8858;52.308;20.994;2024-03-22T12:01:40;9.90;99.90
17483;DHT22;8858;52.308;20.994;2024-03-22T12:06:59;10.20;99.90
17483;DHT22;8858;52.308;20.994;2024-03-22T12:09:26;10.20;99.90
17483;DHT22;8858;52.308;20.994;2024-03-22T12:11:55;10.30;99.90
17483;DHT22;8858;52.308;20.994;2024-03-22T12:14:23;10.40;99.90
17483;DHT22;8858;52.308;20.994;2024-03-22T12:16:49;10.40;99.90
17483;DHT22;8858;52.308;20.994;2024-03-22T12:19:17;10.40;99.90
17483;DHT22;8858;52.308;20.994;2024-03-22T12:21:47;10.40;99.90
17483;DHT22;8858;52.308;20.994;2024-03-22T12:24:16;10.40;99.90
17483;DHT22;8858;52.308;20.994;2024-03-22T12:26:42;10.40;99.90
17483;DHT22;8858;52.308;20.994;2024-03-22T12:29:10;10.50;99.90
17483;DHT22;8858;52.308;20.994;2024-03-22T12:31:37;10.40;99.90
17483;DHT22;8858;52.308;20.994;2024-03-22T12:34:05;10.40;99.90
17483;DHT22;8858;52.308;20.994;2024-03-22T12:36:34;10.20;99.90
17483;DHT22;8858;52.308;20.994;2024-03-22T12:41:52;9.80;99.90
17483;DHT22;8858;52.308;20.994;2024-03-22T12:44:21;9.80;99.90
17483;DHT22;8858;52.308;20.994;2024-03-22T12:46:52;9.90;99.90
17483;DHT22;8858;52.308;20.994;2024-03-22T12:49:20;9.80;99.90
17483;DHT22;8858;52.308;20.994;2024-03-22T12:51:48;9.70;99.90
17483;DHT22;8858;52.308;20.994;2024-03-22T12:54:16;9.70;99.90
17483;DHT22;8858;52.308;20.994;2024-03-22T12:56:48;9.80;99.90
17483;DHT22;8858;52.308;20.994;2024-03-22T13:02:04;9.90;99.90
17483;DHT22;8858;52.308;20.994;2024-03-22T13:04:31;9.90;99.90
17483;DHT22;8858;52.308;20.994;2024-03-22T13:06:58;9.90;99.90
17483;DHT22;8858;52.308;20.994;2024-03-22T13:09:26;9.90;99.90
17483;DHT22;8858;52.308;20.994;2024-03-22T13:11:52;9.90;99.90
17483;DHT22;8858;52.308;20.994;2024-03-22T13:14:22;10.00;99.90
17483;DHT22;8858;52.308;20.994;2024-03-22T13:16:50;10.10;99.90
17483;DHT22;8858;52.308;20.994;2024-03-22T13:19:20;10.20;99.90
17483;DHT22;8858;52.308;20.994;2024-03-22T13:21:52;10.20;99.90
17483;DHT22;8858;52.308;20.994;2024-03-22T13:24:20;10.30;99.90
17483;DHT22;8858;52.308;20.994;2024-03-22T13:26:50;10.30;99.90
17483;DHT22;8858;52.308;20.994;2024-03-22T13:29:18;10.40;99.90
17483;DHT22;8858;52.308;20.994;2024-03-22T13:31:44;10.40;99.90
17483;DHT22;8858;52.308;20.994;2024-03-22T13:34:13;10.40;99.90
17483;DHT22;8858;52.308;20.994;2024-03-22T13:36:43;10.50;99.90
17483;DHT22;8858;52.308;20.994;2024-03-22T13:39:10;10.60;99.90
17483;DHT22;8858;52.308;20.994;2024-03-22T13:41:41;10.70;99.90
17483;DHT22;8858;52.308;20.994;2024-03-22T13:47:05;10.90;99.90
17483;DHT22;8858;52.308;20.994;2024-03-22T13:49:34;10.90;99.90
17483;DHT22;8858;52.308;20.994;2024-03-22T13:52:01;11.00;99.90
17483;DHT22;8858;52.308;20.994;2024-03-22T13:57:07;10.90;99.90
17483;DHT22;8858;52.308;20.994;2024-03-22T13:59:36;10.70;99.90
17483;DHT22;8858;52.308;20.994;2024-03-22T14:02:03;10.70;99.90
17483;DHT22;8858;52.308;20.994;2024-03-22T14:04:35;10.80;99.90
17483;DHT22;8858;52.308;20.994;2024-03-22T14:07:02;10.80;99.90
17483;DHT22;8858;52.308;20.994;2024-03-22T14:09:31;10.80;99.90
17483;DHT22;8858;52.308;20.994;2024-03-22T14:11:57;10.90;99.90
17483;DHT22;8858;52.308;20.994;2024-03-22T14:14:25;11.00;99.90
17483;DHT22;8858;52.308;20.994;2024-03-22T14:16:53;11.00;99.90
17483;DHT22;8858;52.308;20.994;2024-03-22T14:19:22;11.00;99.90
17483;DHT22;8858;52.308;20.994;2024-03-22T14:21:50;11.00;99.90
17483;DHT22;8858;52.308;20.994;2024-03-22T14:24:19;11.20;99.90
17483;DHT22;8858;52.308;20.994;2024-03-22T14:26:47;11.20;99.90
17483;DHT22;8858;52.308;20.994;2024-03-22T14:35:18;11.20;99.90
17483;DHT22;8858;52.308;20.994;2024-03-22T14:37:48;11.20;99.90
17483;DHT22;8858;52.308;20.994;2024-03-22T14:40:16;11.20;99.90
17483;DHT22;8858;52.308;20.994;2024-03-22T14:45:45;11.30;99.90
17483;DHT22;8858;52.308;20.994;2024-03-22T14:48:15;11.20;99.90
17483;DHT22;8858;52.308;20.994;2024-03-22T14:50:41;11.20;99.90
17483;DHT22;8858;52.308;20.994;2024-03-22T14:56:01;11.10;99.90
17483;DHT22;8858;52.308;20.994;2024-03-22T14:58:31;11.20;99.90
17483;DHT22;8858;52.308;20.994;2024-03-22T15:00:59;11.20;99.90
17483;DHT22;8858;52.308;20.994;2024-03-22T15:03:27;11.20;99.90
17483;DHT22;8858;52.308;20.994;2024-03-22T15:05:54;11.20;99.90
17483;DHT22;8858;52.308;20.994;2024-03-22T15:08:23;11.20;99.90
17483;DHT22;8858;52.308;20.994;2024-03-22T15:10:49;11.10;99.90
17483;DHT22;8858;52.308;20.994;2024-03-22T15:13:18;11.20;99.90
17483;DHT22;8858;52.308;20.994;2024-03-22T15:15:52;11.20;99.90
17483;DHT22;8858;52.308;20.994;2024-03-22T15:24:32;11.30;99.90
17483;DHT22;8858;52.308;20.994;2024-03-22T15:30:07;11.30;99.90
17483;DHT22;8858;52.308;20.994;2024-03-22T15:35:24;11.20;99.90
17483;DHT22;8858;52.308;20.994;2024-03-22T15:40:48;11.20;99.90
17483;DHT22;8858;52.308;20.994;2024-03-22T15:45:58;11.20;99.90
17483;DHT22;8858;52.308;20.994;2024-03-22T15:48:29;11.10;99.90
17483;DHT22;8858;52.308;20.994;2024-03-22T15:50:56;11.10;99.90
17483;DHT22;8858;52.308;20.994;2024-03-22T15:56:26;11.10;99.90
17483;DHT22;8858;52.308;20.994;2024-03-22T16:05:07;11.00;99.90
17483;DHT22;8858;52.308;20.994;2024-03-22T16:07:35;10.90;99.90
17483;DHT22;8858;52.308;20.994;2024-03-22T16:10:01;10.90;99.90
17483;DHT22;8858;52.308;20.994;2024-03-22T16:15:24;10.90;99.90
17483;DHT22;8858;52.308;20.994;2024-03-22T16:17:52;10.90;99.90
17483;DHT22;8858;52.308;20.994;2024-03-22T16:20:19;11.00;99.90
17483;DHT22;8858;52.308;20.994;2024-03-22T16:22:47;10.90;99.90
17483;DHT22;8858;52.308;20.994;2024-03-22T16:25:14;10.90;99.90
17483;DHT22;8858;52.308;20.994;2024-03-22T16:27:42;10.90;99.90
17483;DHT22;8858;52.308;20.994;2024-03-22T16:30:13;10.90;99.90
17483;DHT22;8858;52.308;20.994;2024-03-22T16:32:40;10.90;99.90
17483;DHT22;8858;52.308;20.994;2024-03-22T16:35:07;10.90;99.90
17483;DHT22;8858;52.308;20.994;2024-03-22T16:40:25;10.90;99.90
17483;DHT22;8858;52.308;20.994;2024-03-22T16:42:52;10.90;99.90
17483;DHT22;8858;52.308;20.994;2024-03-22T16:45:19;10.90;99.90
17483;DHT22;8858;52.308;20.994;2024-03-22T16:50:36;10.90;99.90
17483;DHT22;8858;52.308;20.994;2024-03-22T16:53:04;10.90;99.90
17483;DHT22;8858;52.308;20.994;2024-03-22T16:55:32;10.90;99.90
17483;DHT22;8858;52.308;20.994;2024-03-22T17:00:47;10.90;99.90
17483;DHT22;8858;52.308;20.994;2024-03-22T17:03:15;10.90;99.90
17483;DHT22;8858;52.308;20.994;2024-03-22T17:05:41;10.90;99.90
17483;DHT22;8858;52.308;20.994;2024-03-22T17:08:08;10.90;99.90
17483;DHT22;8858;52.308;20.994;2024-03-22T17:10:41;10.90;99.90
17483;DHT22;8858;52.308;20.994;2024-03-22T17:13:09;10.80;99.90
17483;DHT22;8858;52.308;20.994;2024-03-22T17:15:35;10.90;99.90
17483;DHT22;8858;52.308;20.994;2024-03-22T17:18:03;10.90;99.90
17483;DHT22;8858;52.308;20.994;2024-03-22T17:20:30;10.80;99.90
17483;DHT22;8858;52.308;20.994;2024-03-22T17:25:49;10.80;99.90
17483;DHT22;8858;52.308;20.994;2024-03-22T17:28:16;10.80;99.90
17483;DHT22;8858;52.308;20.994;2024-03-22T17:30:45;10.80;99.90
17483;DHT22;8858;52.308;20.994;2024-03-22T17:36:18;10.90;99.90
17483;DHT22;8858;52.308;20.994;2024-03-22T17:38:49;10.90;99.90
17483;DHT22;8858;52.308;20.994;2024-03-22T17:41:21;10.90;99.90
17483;DHT22;8858;52.308;20.994;2024-03-22T17:43:48;10.90;99.90
17483;DHT22;8858;52.308;20.994;2024-03-22T17:46:15;10.90;99.90
17483;DHT22;8858;52.308;20.994;2024-03-22T17:48:42;10.80;99.90
17483;DHT22;8858;52.308;20.994;2024-03-22T17:51:09;10.80;99.90
17483;DHT22;8858;52.308;20.994;2024-03-22T17:53:37;10.80;99.90
17483;DHT22;8858;52.308;20.994;2024-03-22T17:56:04;10.80;99.90
17483;DHT22;8858;52.308;20.994;2024-03-22T17:58:33;10.90;99.90
17483;DHT22;8858;52.308;20.994;2024-03-22T18:01:00;10.90;99.90
17483;DHT22;8858;52.308;20.994;2024-03-22T18:03:28;11.00;99.90
17483;DHT22;8858;52.308;20.994;2024-03-22T18:05:57;11.00;99.90
17483;DHT22;8858;52.308;20.994;2024-03-22T18:08:30;11.00;99.90
17483;DHT22;8858;52.308;20.994;2024-03-22T18:10:57;10.90;99.90
17483;DHT22;8858;52.308;20.994;2024-03-22T18:13:24;11.00;99.90
17483;DHT22;8858;52.308;20.994;2024-03-22T18:15:52;11.00;99.90
17483;DHT22;8858;52.308;20.994;2024-03-22T18:18:20;11.00;99.90
17483;DHT22;8858;52.308;20.994;2024-03-22T18:20:46;11.00;99.90
17483;DHT22;8858;52.308;20.994;2024-03-22T18:23:16;11.00;99.90
17483;DHT22;8858;52.308;20.994;2024-03-22T18:25:46;10.90;99.90
17483;DHT22;8858;52.308;20.994;2024-03-22T18:28:16;10.90;99.90
17483;DHT22;8858;52.308;20.994;2024-03-22T18:30:45;10.90;99.90
17483;DHT22;8858;52.308;20.994;2024-03-22T18:33:14;10.90;99.90
17483;DHT22;8858;52.308;20.994;2024-03-22T18:35:42;11.00;99.90
17483;DHT22;8858;52.308;20.994;2024-03-22T18:38:09;11.00;99.90
17483;DHT22;8858;52.308;20.994;2024-03-22T18:40:35;11.00;99.90
17483;DHT22;8858;52.308;20.994;2024-03-22T18:43:03;11.00;99.90
17483;DHT22;8858;52.308;20.994;2024-03-22T18:45:29;11.00;99.90
17483;DHT22;8858;52.308;20.994;2024-03-22T18:47:57;10.90;99.90
17483;DHT22;8858;52.308;20.994;2024-03-22T18:50:24;11.00;99.90
17483;DHT22;8858;52.308;20.994;2024-03-22T18:52:53;11.00;99.90
17483;DHT22;8858;52.308;20.994;2024-03-22T18:55:20;11.00;99.90
17483;DHT22;8858;52.308;20.994;2024-03-22T19:00:49;11.00;99.90
17483;DHT22;8858;52.308;20.994;2024-03-22T19:03:17;11.00;99.90
17483;DHT22;8858;52.308;20.994;2024-03-22T19:05:45;11.00;99.90
17483;DHT22;8858;52.308;20.994;2024-03-22T19:08:12;11.00;99.90
17483;DHT22;8858;52.308;20.994;2024-03-22T19:10:39;11.00;99.90
17483;DHT22;8858;52.308;20.994;2024-03-22T19:13:06;11.10;99.90
17483;DHT22;8858;52.308;20.994;2024-03-22T19:15:32;11.10;99.90
17483;DHT22;8858;52.308;20.994;2024-03-22T19:18:00;11.10;99.90
17483;DHT22;8858;52.308;20.994;2024-03-22T19:20:28;11.10;99.90
17483;DHT22;8858;52.308;20.994;2024-03-22T19:22:59;11.10;99.90
17483;DHT22;8858;52.308;20.994;2024-03-22T19:25:25;11.10;99.90
17483;DHT22;8858;52.308;20.994;2024-03-22T19:27:52;11.10;99.90
17483;DHT22;8858;52.308;20.994;2024-03-22T19:30:19;11.20;99.90
17483;DHT22;8858;52.308;20.994;2024-03-22T19:32:49;11.20;99.90
17483;DHT22;8858;52.308;20.994;2024-03-22T19:35:16;11.20;99.90
17483;DHT22;8858;52.308;20.994;2024-03-22T19:37:44;11.20;99.90
17483;DHT22;8858;52.308;20.994;2024-03-22T19:40:12;11.30;99.90
17483;DHT22;8858;52.308;20.994;2024-03-22T19:42:39;11.20;99.90
17483;DHT22;8858;52.308;20.994;2024-03-22T19:45:06;11.20;99.90
17483;DHT22;8858;52.308;20.994;2024-03-22T19:47:33;11.20;99.90
17483;DHT22;8858;52.308;20.994;2024-03-22T19:49:59;11.20;99.90
17483;DHT22;8858;52.308;20.994;2024-03-22T19:52:26;11.20;99.90
17483;DHT22;8858;52.308;20.994;2024-03-22T19:54:52;11.10;99.90
17483;DHT22;8858;52.308;20.994;2024-03-22T19:57:22;11.20;99.90
17483;DHT22;8858;52.308;20.994;2024-03-22T19:59:48;11.10;99.90
17483;DHT22;8858;52.308;20.994;2024-03-22T20:05:12;11.10;99.90
17483;DHT22;8858;52.308;20.994;2024-03-22T20:07:43;11.00;99.90
17483;DHT22;8858;52.308;20.994;2024-03-22T20:10:09;11.10;99.90
17483;DHT22;8858;52.308;20.994;2024-03-22T20:12:38;11.10;99.90
17483;DHT22;8858;52.308;20.994;2024-03-22T20:15:05;11.00;99.90
17483;DHT22;8858;52.308;20.994;2024-03-22T20:17:35;11.00;99.90
17483;DHT22;8858;52.308;20.994;2024-03-22T20:20:01;11.10;99.90
17483;DHT22;8858;52.308;20.994;2024-03-22T20:22:29;11.10;99.90
17483;DHT22;8858;52.308;20.994;2024-03-22T20:24:56;11.30;99.90
17483;DHT22;8858;52.308;20.994;2024-03-22T20:30:14;11.20;99.90